首页
METAR-TAF:

METAR-TAF

机场 :

沙希德·哈希米内贾德国际机场

馬什哈德, 伊朗

纬度: 36-16N, 经度: 059-38E, 海拔: 989米

当前天气观测

该预报发布于28分钟前的08:30 UTC
风速8节,风向
温度 18°C
湿度 45%
气压 1018 hPa
能见度10公里或以上
散云层高于3500英尺
少量云层高于4000英尺, 积雨云.
多云层高于11000英尺

METAR: OIMM 030830Z 35008KT 9999 SCT035 FEW040CB BKN110 18/06 Q1017 A3005

时间: 13:28 (08:58 UTC)

预报

该预报发布于3小时和28分钟前的05:30 UTC
预报有效从03日的 06点(UTC)到 04日的 12点(UTC)
风速6节,风向西转西南
少量云层高于3500英尺, 积雨云.
散云层高于4000英尺
多云层高于10000英尺
短暂存在
从 03日的 09点(UTC)到 03日的 18点(UTC)
风速12节,风向西转西北,有时为24节阵风
能見度: 5000
散云层高于3000英尺, 积雨云.
散云层高于3500英尺
阴天层高于9000英尺
雷暴, 雨
成为
从 03日的 18点(UTC)到 03日的 20点(UTC)
能見度: 4000
散云层高于2000英尺
少量云层高于3000英尺, 积雨云.
多云层高于9000英尺
轻雾, 雨
短暂存在
从 03日的 20点(UTC)到 04日的 03点(UTC)
风速2节,风向多变
能見度: 1500
多云层高于1500英尺
多云层高于8000英尺
轻雾, 毛毛雨
成为
从 04日的 04点(UTC)到 04日的 06点(UTC)
风速4节,风向东南
能見度: 7000
散云层高于1500英尺
多云层高于9000英尺

TAF: OIMM 030530Z 0306/0412 24006KT FEW035CB SCT040 BKN100 TEMPO 0309/0318 29012G24KT 5000 TSRA SCT030CB SCT035 OVC090 BECMG 0318/0320 4000 BR RA SCT020 FEW030CB BKN090 TEMPO 0320/0403 VRB02KT 1500 BR DZ BKN015 BKN080 BECMG 0404/0406 14004KT 7000 SCT015 BKN090

超过4000个机场的气象观测和天气预报(METAR&TAF报告)。

可查询的气象台以黄色和红色小点在地图上表示。

将鼠标移到小点上方,可查看气象台名称。

然后点击查看天气观测和预报。

如需切换地图:点击带黑十字的绿色按钮放大地图;点击带横线的绿色按钮缩小地图;或者点击绿色箭头查看邻近地区的地图。


METAR-TAF: